Time;durP1;ratioP1;P1;durP2;ratioP2;P2;SDS_P1;SDS_P2;PMS_P1;PMS_P2;Temp;Humidity;BMP_temperature;BMP_pressure;BME280_temperature;BME280_humidity;BME280_pressure;Samples;Min_cycle;Max_cycle;Signal;HPM_P1;HPM_P2
2022/03/05 00:03:25;;;;;;;;;;;;;;;21.74;23.49;95769.06;10444425;28;1880;-53
2022/03/05 00:08:25;;;;;;;;;;;;;;;21.73;23.31;95767.47;10424039;28;1862;-52
2022/03/05 00:13:26;;;;;;;;;;;;;;;21.70;23.28;95771.44;10424255;28;1949;-54
2022/03/05 00:18:27;;;;;;;;;;;;;;;21.70;23.39;95768.81;10426564;28;1914;-54
2022/03/05 00:23:27;;;;;;;;;;;;;;;21.66;23.19;95761.72;10441949;28;1477;-54
2022/03/05 00:28:28;;;;;;;;;;;;;;;21.66;23.37;95772.28;10442549;28;1841;-54
2022/03/05 00:33:29;;;;;;;;;;;;;;;21.63;23.17;95771.00;10440630;28;2152;-54
2022/03/05 00:38:29;;;;;;;;;;;;;;;21.62;23.51;95771.28;10424379;28;2226;-50
2022/03/05 00:43:30;;;;;;;;;;;;;;;21.65;23.48;95776.00;10425109;28;2104;-52
2022/03/05 00:48:30;;;;;;;;;;;;;;;21.62;23.22;95776.53;10437838;28;1825;-53
2022/03/05 00:53:30;;;;;;;;;;;;;;;21.60;23.30;95765.50;10435959;28;1860;-52
2022/03/05 00:58:31;;;;;;;;;;;;;;;21.60;23.32;95760.22;10439949;28;1901;-52
2022/03/05 01:03:31;;;;;;;;;;;;;;;21.58;23.36;95757.06;10443222;28;1821;-52
2022/03/05 01:08:33;;;;;;;;;;;;;;;21.59;23.09;95756.03;10439806;28;1841;-54
2022/03/05 01:13:33;;;;;;;;;;;;;;;21.57;23.15;95758.94;10436308;28;1885;-53
2022/03/05 01:18:34;;;;;;;;;;;;;;;21.58;23.04;95755.22;10419085;28;1898;-54
2022/03/05 01:23:34;;;;;;;;;;;;;;;21.56;22.99;95757.34;10421807;28;1835;-52
2022/03/05 01:28:35;;;;;;;;;;;;;;;21.56;22.99;95765.28;10412253;22;2432;-56
2022/03/05 01:33:35;;;;;;;;;;;;;;;21.59;22.94;95761.28;10454540;28;2404;-53
2022/03/05 01:38:35;;;;;;;;;;;;;;;21.57;22.98;95763.44;10459667;28;1914;-53
2022/03/05 01:43:36;;;;;;;;;;;;;;;21.56;22.88;95754.72;10463464;28;1876;-52
2022/03/05 01:48:36;;;;;;;;;;;;;;;21.57;22.87;95758.94;10448150;28;1885;-52
2022/03/05 01:53:36;;;;;;;;;;;;;;;21.57;22.94;95756.31;10477285;28;1999;-53
2022/03/05 01:58:37;;;;;;;;;;;;;;;21.56;22.84;95752.09;10461848;28;1909;-50
2022/03/05 02:03:37;;;;;;;;;;;;;;;21.51;23.11;95752.16;10442034;28;1915;-53
2022/03/05 02:08:37;;;;;;;;;;;;;;;21.55;22.75;95749.72;10449676;28;2104;-49
2022/03/05 02:13:38;;;;;;;;;;;;;;;21.56;22.78;95738.09;10458289;28;2005;-50
2022/03/05 02:18:46;;;;;;;;;;;;;;;21.54;22.83;95743.66;10461564;28;1979;-53
2022/03/05 02:23:46;;;;;;;;;;;;;;;21.57;22.89;95744.97;10470148;28;2007;-49
2022/03/05 02:28:47;;;;;;;;;;;;;;;21.53;22.70;95746.59;10480415;28;1999;-52
2022/03/05 02:33:52;;;;;;;;;;;;;;;21.53;22.82;95747.38;10460152;28;1947;-54
2022/03/05 02:38:53;;;;;;;;;;;;;;;21.53;22.47;95734.19;10484793;28;1910;-50
2022/03/05 02:43:53;;;;;;;;;;;;;;;21.53;22.51;95730.75;10487050;28;1956;-50
2022/03/05 02:48:54;;;;;;;;;;;;;;;21.53;22.58;95717.56;10480698;28;1959;-48
2022/03/05 02:53:54;;;;;;;;;;;;;;;21.52;22.50;95731.81;10462430;28;1985;-51
2022/03/05 02:58:54;;;;;;;;;;;;;;;21.51;22.59;95717.88;10477401;28;1960;-52
2022/03/05 03:03:55;;;;;;;;;;;;;;;21.52;22.41;95711.50;10446443;28;2003;-52
2022/03/05 03:08:55;;;;;;;;;;;;;;;21.51;22.51;95711.78;10469115;28;1972;-51
2022/03/05 03:13:55;;;;;;;;;;;;;;;21.52;22.48;95705.44;10478554;28;2024;-51
2022/03/05 03:18:56;;;;;;;;;;;;;;;21.52;22.31;95705.44;10467299;28;1985;-50
2022/03/05 03:23:56;;;;;;;;;;;;;;;21.53;22.29;95714.94;10466932;28;1941;-51
2022/03/05 03:28:56;;;;;;;;;;;;;;;21.49;22.29;95701.53;10468775;28;1961;-50
2022/03/05 03:33:57;;;;;;;;;;;;;;;21.52;22.20;95700.16;10462305;28;2234;-53
2022/03/05 03:38:57;;;;;;;;;;;;;;;21.48;22.30;95707.84;10468814;28;1995;-52
2022/03/05 03:43:57;;;;;;;;;;;;;;;21.52;22.41;95697.53;10461202;28;2294;-50
2022/03/05 03:49:02;;;;;;;;;;;;;;;21.51;22.25;95702.03;10475241;28;1991;-50
2022/03/05 03:54:02;;;;;;;;;;;;;;;21.51;22.31;95711.78;10462269;28;1949;-48
2022/03/05 03:59:02;;;;;;;;;;;;;;;21.49;22.14;95717.34;10481727;28;1940;-55
2022/03/05 04:04:03;;;;;;;;;;;;;;;21.49;22.04;95722.63;10465311;28;2036;-51
2022/03/05 04:09:03;;;;;;;;;;;;;;;21.48;22.09;95728.97;10458853;28;1942;-50
2022/03/05 04:14:04;;;;;;;;;;;;;;;21.49;22.39;95719.19;10457714;28;1988;-53
2022/03/05 04:19:04;;;;;;;;;;;;;;;21.49;22.04;95716.56;10457031;28;2011;-50
2022/03/05 04:24:04;;;;;;;;;;;;;;;21.47;22.30;95737.94;10463739;28;1977;-48
2022/03/05 04:29:05;;;;;;;;;;;;;;;21.46;22.25;95732.94;10457083;28;1873;-52
2022/03/05 04:34:05;;;;;;;;;;;;;;;21.46;22.22;95743.47;10458079;28;1962;-49
2022/03/05 04:39:06;;;;;;;;;;;;;;;21.45;21.99;95728.75;10461565;28;1914;-50
2022/03/05 04:44:06;;;;;;;;;;;;;;;21.45;22.03;95736.66;10457792;28;1934;-48
2022/03/05 04:49:09;;;;;;;;;;;;;;;21.46;21.90;95730.28;10460195;28;1991;-51
2022/03/05 04:54:10;;;;;;;;;;;;;;;21.45;21.92;95744.56;10460868;28;1965;-51
2022/03/05 04:59:11;;;;;;;;;;;;;;;21.44;21.84;95733.22;10481850;28;1955;-52
2022/03/05 05:04:11;;;;;;;;;;;;;;;21.48;22.10;95736.06;10461352;28;2055;-49
2022/03/05 05:09:12;;;;;;;;;;;;;;;21.47;21.96;95745.06;10474692;28;2019;-50
2022/03/05 05:14:13;;;;;;;;;;;;;;;21.46;21.90;95741.63;10453439;28;1977;-48
2022/03/05 05:19:29;;;;;;;;;;;;;;;21.46;21.76;95741.63;10452599;28;2017;-51
2022/03/05 05:24:31;;;;;;;;;;;;;;;21.44;21.77;95746.41;10481507;28;1967;-52
2022/03/05 05:29:31;;;;;;;;;;;;;;;21.45;21.85;95741.91;10475530;28;1870;-49
2022/03/05 05:34:32;;;;;;;;;;;;;;;21.42;21.83;95745.09;10474830;28;1920;-51
2022/03/05 05:39:32;;;;;;;;;;;;;;;21.44;21.87;95743.78;10477376;28;1998;-48
2022/03/05 05:44:32;;;;;;;;;;;;;;;21.45;21.94;95747.97;10473745;28;1932;-49
2022/03/05 05:49:33;;;;;;;;;;;;;;;21.44;21.87;95751.69;10473266;28;1873;-47
2022/03/05 05:54:33;;;;;;;;;;;;;;;21.45;21.73;95752.47;10474802;28;1948;-52
2022/03/05 05:59:33;;;;;;;;;;;;;;;21.43;21.82;95758.00;10473792;28;1956;-52
2022/03/05 06:04:34;;;;;;;;;;;;;;;21.44;21.54;95759.59;10450132;28;1927;-53
2022/03/05 06:09:34;;;;;;;;;;;;;;;21.44;21.39;95759.59;10462787;28;1908;-50
2022/03/05 06:14:34;;;;;;;;;;;;;;;21.45;21.32;95765.66;10483527;28;1943;-50
2022/03/05 06:19:35;;;;;;;;;;;;;;;21.45;21.42;95771.69;10488563;28;1979;-50
2022/03/05 06:24:35;;;;;;;;;;;;;;;21.47;21.70;95777.50;10465773;28;1920;-52
2022/03/05 06:29:35;;;;;;;;;;;;;;;21.49;21.59;95777.22;10472644;28;1841;-52
2022/03/05 06:34:36;;;;;;;;;;;;;;;21.38;20.61;95779.16;10482961;28;2027;-47
2022/03/05 06:39:37;;;;;;;;;;;;;;;21.14;20.37;95785.44;10482367;28;1927;-51
2022/03/05 06:44:37;;;;;;;;;;;;;;;21.03;20.13;95787.34;10482864;28;1919;-50
2022/03/05 06:49:37;;;;;;;;;;;;;;;21.13;20.32;95786.47;10461270;28;1962;-54
2022/03/05 06:54:38;;;;;;;;;;;;;;;21.25;20.66;95792.19;10467422;28;1912;-50
2022/03/05 06:59:38;;;;;;;;;;;;;;;21.31;20.95;95788.47;10465602;28;1916;-49
2022/03/05 07:04:40;;;;;;;;;;;;;;;21.30;20.38;95797.44;10463896;28;1908;-51
2022/03/05 07:09:41;;;;;;;;;;;;;;;21.37;20.75;95800.53;10477402;28;2046;-54
2022/03/05 07:14:44;;;;;;;;;;;;;;;21.37;20.83;95805.81;10482745;28;1928;-54
2022/03/05 07:19:45;;;;;;;;;;;;;;;21.37;20.96;95811.84;10458964;28;2043;-53
2022/03/05 07:24:45;;;;;;;;;;;;;;;21.40;21.01;95802.59;10479232;28;2006;-53
2022/03/05 07:29:46;;;;;;;;;;;;;;;21.42;21.02;95803.13;10477906;28;1927;-50
2022/03/05 07:34:47;;;;;;;;;;;;;;;21.42;20.94;95805.75;10461262;28;2016;-51
2022/03/05 07:39:47;;;;;;;;;;;;;;;21.42;21.12;95811.03;10470532;28;2023;-54
2022/03/05 07:44:47;;;;;;;;;;;;;;;21.43;20.91;95802.06;10469292;28;1843;-53
2022/03/05 07:49:48;;;;;;;;;;;;;;;21.45;21.05;95799.94;10475477;28;2130;-55
2022/03/05 07:54:50;;;;;;;;;;;;;;;21.45;21.22;95794.66;10453458;28;1858;-50
2022/03/05 07:59:50;;;;;;;;;;;;;;;21.46;21.32;95802.28;10469445;23;3600;-47
2022/03/05 08:04:51;;;;;;;;;;;;;;;21.45;21.45;95803.34;10446110;28;1999;-49
2022/03/05 08:09:51;;;;;;;;;;;;;;;21.49;21.58;95803.59;10414466;28;2047;-45
2022/03/05 08:14:51;;;;;;;;;;;;;;;21.49;21.55;95799.13;10372463;28;1858;-44
2022/03/05 08:19:52;;;;;;;;;;;;;;;21.50;21.62;95799.88;10398696;28;2338;-45
2022/03/05 08:24:53;;;;;;;;;;;;;;;21.48;21.55;95807.28;10408743;28;1880;-44
2022/03/05 08:29:54;;;;;;;;;;;;;;;21.49;21.54;95812.31;10397514;28;1854;-46
2022/03/05 08:34:55;;;;;;;;;;;;;;;21.55;21.77;95813.03;10401879;28;1823;-43
2022/03/05 08:39:57;;;;;;;;;;;;;;;21.57;22.36;95809.06;10412273;28;2171;-50
2022/03/05 08:44:59;;;;;;;;;;;;;;;21.58;22.34;95807.19;10386815;28;1842;-48
2022/03/05 08:49:59;;;;;;;;;;;;;;;21.55;22.77;95808.56;10404101;28;1844;-44
2022/03/05 08:55:00;;;;;;;;;;;;;;;21.56;23.01;95798.75;10371574;28;1930;-46
2022/03/05 09:00:00;;;;;;;;;;;;;;;21.59;23.31;95808.78;10401772;28;1977;-43
2022/03/05 09:05:01;;;;;;;;;;;;;;;21.60;24.22;95808.50;10402829;28;1871;-45
2022/03/05 09:10:03;;;;;;;;;;;;;;;21.62;24.05;95809.00;10402900;28;2381;-46
2022/03/05 09:15:04;;;;;;;;;;;;;;;21.62;24.73;95808.19;10401539;28;1932;-44
2022/03/05 09:20:05;;;;;;;;;;;;;;;21.63;24.35;95801.88;10389890;28;2048;-48
2022/03/05 09:25:05;;;;;;;;;;;;;;;21.60;24.85;95797.16;10406420;28;1818;-45
2022/03/05 09:30:08;;;;;;;;;;;;;;;21.57;24.76;95793.22;10382592;28;2011;-48
2022/03/05 09:35:08;;;;;;;;;;;;;;;21.55;24.84;95802.47;10372059;28;1892;-46
2022/03/05 09:40:08;;;;;;;;;;;;;;;21.56;24.96;95793.50;10404635;28;1977;-45
2022/03/05 09:45:09;;;;;;;;;;;;;;;21.57;24.75;95795.88;10390993;28;1884;-45
2022/03/05 09:50:10;;;;;;;;;;;;;;;21.55;24.86;95791.94;10414066;28;1972;-45
2022/03/05 09:55:11;;;;;;;;;;;;;;;21.55;25.10;95794.56;10412733;28;1901;-42
2022/03/05 10:00:11;;;;;;;;;;;;;;;21.52;25.00;95787.19;10415184;28;2044;-46
2022/03/05 10:05:12;;;;;;;;;;;;;;;21.53;24.86;95788.78;10415404;28;1838;-45
2022/03/05 10:10:13;;;;;;;;;;;;;;;21.53;24.91;95794.06;10413927;28;1854;-45
2022/03/05 10:15:22;;;;;;;;;;;;;;;21.52;24.72;95789.84;10416725;28;1919;-43
2022/03/05 10:20:27;;;;;;;;;;;;;;;21.52;24.83;95787.19;10413449;28;1968;-43
2022/03/05 10:25:28;;;;;;;;;;;;;;;21.51;24.81;95796.19;10408181;28;1815;-41
2022/03/05 10:30:33;;;;;;;;;;;;;;;21.53;24.77;95788.78;10412500;28;1807;-40
2022/03/05 10:35:33;;;;;;;;;;;;;;;21.55;24.72;95784.03;10410099;28;1960;-41
2022/03/05 10:40:34;;;;;;;;;;;;;;;21.56;24.56;95781.09;10412655;28;1906;-47
2022/03/05 10:45:51;;;;;;;;;;;;;;;21.55;24.82;95786.66;10405251;28;1893;-43
2022/03/05 10:50:54;;;;;;;;;;;;;;;21.52;24.77;95787.19;10406161;28;2311;-45
2022/03/05 10:55:55;;;;;;;;;;;;;;;21.53;24.70;95783.50;10384099;28;1843;-43
2022/03/05 11:00:55;;;;;;;;;;;;;;;21.52;24.54;95781.94;10404922;28;1957;-45
2022/03/05 11:05:55;;;;;;;;;;;;;;;21.53;24.58;95778.22;10412842;28;1847;-43
2022/03/05 11:10:56;;;;;;;;;;;;;;;21.53;24.51;95789.59;10397665;28;1958;-41
2022/03/05 11:15:57;;;;;;;;;;;;;;;21.55;24.67;95789.28;10392426;28;1940;-42
2022/03/05 11:20:58;;;;;;;;;;;;;;;21.56;24.37;95777.66;10376143;28;2136;-44
2022/03/05 11:25:59;;;;;;;;;;;;;;;21.58;24.34;95780.81;10385839;28;2005;-42
2022/03/05 11:31:02;;;;;;;;;;;;;;;21.53;24.35;95780.88;10410699;28;1853;-45
2022/03/05 11:36:04;;;;;;;;;;;;;;;21.54;24.51;95774.53;10405557;28;2020;-45
2022/03/05 11:41:04;;;;;;;;;;;;;;;21.55;24.30;95760.28;10386265;28;2345;-44
2022/03/05 11:46:05;;;;;;;;;;;;;;;21.58;24.54;95754.44;10402036;28;1956;-43
2022/03/05 11:51:10;;;;;;;;;;;;;;;21.58;24.69;95749.94;10382634;28;1848;-42
2022/03/05 11:56:22;;;;;;;;;;;;;;;21.58;24.69;95752.59;10397823;28;2007;-40
2022/03/05 12:01:55;;;;;;;;;;;;;;;21.55;24.62;95745.25;10402654;28;2107;-40
2022/03/05 12:06:56;;;;;;;;;;;;;;;21.60;24.59;95725.91;10364499;28;1827;-40
2022/03/05 12:11:57;;;;;;;;;;;;;;;21.64;24.38;95726.94;10394040;28;1718;-41
2022/03/05 12:16:57;;;;;;;;;;;;;;;21.64;24.28;95711.09;10384244;28;1918;-43
2022/03/05 12:21:57;;;;;;;;;;;;;;;21.66;24.21;95719.53;10385322;28;1971;-41
2022/03/05 12:26:58;;;;;;;;;;;;;;;21.64;24.46;95706.63;10400545;28;2275;-44
2022/03/05 12:31:59;;;;;;;;;;;;;;;21.63;24.51;95701.63;10403862;28;1843;-50
2022/03/05 12:36:59;;;;;;;;;;;;;;;21.65;24.33;95694.22;10402161;28;1901;-47
2022/03/05 12:42:00;;;;;;;;;;;;;;;21.69;24.30;95682.03;10402927;28;1988;-43
2022/03/05 12:47:00;;;;;;;;;;;;;;;21.67;24.46;95686.81;10405659;28;2063;-45
2022/03/05 12:52:00;;;;;;;;;;;;;;;21.65;24.53;95695.03;10404669;28;2096;-43
2022/03/05 12:57:01;;;;;;;;;;;;;;;21.63;24.44;95683.97;10397996;28;1973;-44
2022/03/05 13:02:04;;;;;;;;;;;;;;;21.70;24.14;95678.34;10383071;28;1858;-43
2022/03/05 13:07:06;;;;;;;;;;;;;;;21.69;24.18;95682.03;10399935;28;2032;-41
2022/03/05 13:12:06;;;;;;;;;;;;;;;21.65;24.06;95679.19;10384367;28;1862;-43
2022/03/05 13:17:06;;;;;;;;;;;;;;;21.67;24.33;95673.63;10402221;28;1914;-41
2022/03/05 13:22:07;;;;;;;;;;;;;;;21.66;24.25;95670.19;10384960;28;2000;-43
2022/03/05 13:27:07;;;;;;;;;;;;;;;21.72;23.90;95665.66;10383496;28;1977;-51
2022/03/05 13:32:08;;;;;;;;;;;;;;;21.78;23.98;95669.81;10405127;28;2211;-43
2022/03/05 13:37:09;;;;;;;;;;;;;;;21.79;23.91;95660.81;10396636;28;2066;-42
2022/03/05 13:42:14;;;;;;;;;;;;;;;21.80;24.01;95667.66;10394230;28;1459;-42
2022/03/05 13:47:15;;;;;;;;;;;;;;;21.89;24.09;95660.72;10402016;28;1696;-43
2022/03/05 13:52:17;;;;;;;;;;;;;;;21.97;23.85;95668.00;10370705;28;2115;-40
2022/03/05 13:57:27;;;;;;;;;;;;;;;22.05;23.75;95670.00;10397409;22;3682;-50
2022/03/05 14:02:30;;;;;;;;;;;;;;;22.10;23.81;95667.28;10427425;28;2170;-51
2022/03/05 14:07:31;;;;;;;;;;;;;;;22.13;23.48;95650.09;10438484;28;1830;-53
2022/03/05 14:12:31;;;;;;;;;;;;;;;22.06;23.49;95655.75;10439699;28;1838;-54
2022/03/05 14:17:37;;;;;;;;;;;;;;;21.96;23.96;95653.25;10440282;28;1910;-51
2022/03/05 14:22:44;;;;;;;;;;;;;;;21.85;24.06;95659.72;10426624;28;1847;-51
2022/03/05 14:27:45;;;;;;;;;;;;;;;21.80;23.85;95659.75;10425291;28;1824;-54
2022/03/05 14:32:45;;;;;;;;;;;;;;;21.76;23.88;95664.03;10440327;28;1876;-56
2022/03/05 14:37:46;;;;;;;;;;;;;;;21.70;23.85;95657.25;10445796;28;2327;-51
2022/03/05 14:42:47;;;;;;;;;;;;;;;21.67;23.96;95657.78;10429939;28;1891;-53
2022/03/05 14:47:48;;;;;;;;;;;;;;;21.60;23.97;95659.97;10445611;28;1955;-52
2022/03/05 14:52:48;;;;;;;;;;;;;;;21.61;24.11;95667.63;10417752;28;2012;-53
2022/03/05 14:57:49;;;;;;;;;;;;;;;21.58;24.04;95664.75;10437175;28;1969;-54
2022/03/05 15:02:49;;;;;;;;;;;;;;;21.53;24.07;95662.97;10431968;28;2023;-53
2022/03/05 15:07:49;;;;;;;;;;;;;;;21.51;24.32;95665.13;10426008;28;1820;-52
2022/03/05 15:12:50;;;;;;;;;;;;;;;21.46;24.55;95665.16;10444853;28;1846;-54
2022/03/05 15:17:50;;;;;;;;;;;;;;;21.50;24.58;95671.44;10446038;28;1969;-53
2022/03/05 15:22:51;;;;;;;;;;;;;;;21.51;25.20;95672.22;10447622;28;1816;-58
2022/03/05 15:27:51;;;;;;;;;;;;;;;21.51;25.05;95674.88;10432157;28;1918;-48
2022/03/05 15:32:51;;;;;;;;;;;;;;;21.58;24.73;95675.31;10437789;28;2277;-53
2022/03/05 15:37:52;;;;;;;;;;;;;;;21.53;25.38;95672.75;10432263;28;1982;-47
2022/03/05 15:42:53;;;;;;;;;;;;;;;21.50;25.00;95673.28;10438720;28;1995;-49
2022/03/05 15:47:53;;;;;;;;;;;;;;;21.50;25.06;95666.16;10432320;28;1859;-54
2022/03/05 15:52:54;;;;;;;;;;;;;;;21.53;24.93;95656.91;10436467;28;2061;-50
2022/03/05 15:57:54;;;;;;;;;;;;;;;21.61;24.76;95674.75;10424138;28;1931;-49
2022/03/05 16:02:55;;;;;;;;;;;;;;;21.63;24.90;95665.50;10444059;28;1786;-50
2022/03/05 16:07:55;;;;;;;;;;;;;;;21.35;22.45;95670.84;10435164;28;1829;-49
2022/03/05 16:12:56;;;;;;;;;;;;;;;21.45;23.95;95663.56;10423773;28;1943;-49
2022/03/05 16:17:56;;;;;;;;;;;;;;;21.50;23.73;95663.53;10439667;28;1910;-48
2022/03/05 16:22:57;;;;;;;;;;;;;;;21.44;24.42;95669.13;10430233;28;1915;-50
2022/03/05 16:27:58;;;;;;;;;;;;;;;21.38;24.60;95670.25;10429673;28;1887;-51
2022/03/05 16:32:58;;;;;;;;;;;;;;;21.33;24.48;95673.72;10428440;28;1898;-49
2022/03/05 16:37:59;;;;;;;;;;;;;;;21.31;24.35;95669.81;10437157;28;1910;-51
2022/03/05 16:43:01;;;;;;;;;;;;;;;21.38;24.52;95676.31;10440954;28;1838;-49
2022/03/05 16:48:01;;;;;;;;;;;;;;;21.32;24.57;95681.94;10444052;28;1815;-49
2022/03/05 16:53:01;;;;;;;;;;;;;;;21.33;24.48;95683.50;10433240;28;1849;-49
2022/03/05 16:58:02;;;;;;;;;;;;;;;21.31;24.76;95677.72;10439669;28;2272;-51
2022/03/05 17:03:02;;;;;;;;;;;;;;;21.30;24.91;95684.06;10424363;28;1822;-50
2022/03/05 17:08:03;;;;;;;;;;;;;;;21.32;24.58;95687.19;10446341;28;1710;-51
2022/03/05 17:13:03;;;;;;;;;;;;;;;21.41;24.31;95685.53;10442221;28;1844;-50
2022/03/05 17:18:04;;;;;;;;;;;;;;;21.42;24.03;95692.38;10439457;28;1902;-47
2022/03/05 17:23:05;;;;;;;;;;;;;;;21.42;24.10;95693.16;10424472;28;1849;-52
2022/03/05 17:28:06;;;;;;;;;;;;;;;21.45;24.18;95691.81;10442664;28;1856;-46
2022/03/05 17:33:10;;;;;;;;;;;;;;;21.47;24.13;95701.03;10438205;28;1961;-49
2022/03/05 17:38:10;;;;;;;;;;;;;;;21.48;24.07;95712.34;10432349;28;1906;-50
2022/03/05 17:43:11;;;;;;;;;;;;;;;21.46;24.18;95707.34;10439134;28;1821;-54
2022/03/05 17:48:11;;;;;;;;;;;;;;;21.50;23.86;95712.84;10442148;28;1765;-50
2022/03/05 17:53:11;;;;;;;;;;;;;;;21.47;24.19;95716.84;10439248;28;1812;-54
2022/03/05 17:58:12;;;;;;;;;;;;;;;21.49;23.94;95717.34;10438642;28;1981;-50
2022/03/05 18:03:12;;;;;;;;;;;;;;;21.46;24.11;95714.47;10446352;28;1892;-54
2022/03/05 18:08:13;;;;;;;;;;;;;;;21.51;23.74;95727.63;10444113;28;1856;-48
2022/03/05 18:13:13;;;;;;;;;;;;;;;21.48;23.82;95725.53;10439708;28;3433;-50
2022/03/05 18:18:13;;;;;;;;;;;;;;;21.47;24.00;95731.88;10428800;28;3410;-54
2022/03/05 18:23:15;;;;;;;;;;;;;;;21.48;23.71;95739.50;10432812;28;1750;-51
2022/03/05 18:28:15;;;;;;;;;;;;;;;21.47;23.87;95740.59;10450761;28;1817;-53
2022/03/05 18:33:15;;;;;;;;;;;;;;;21.49;24.00;95740.31;10426065;28;3388;-63
2022/03/05 18:38:16;;;;;;;;;;;;;;;21.48;23.66;95738.72;10431071;28;1972;-47
2022/03/05 18:43:16;;;;;;;;;;;;;;;21.46;23.90;95746.13;10415638;28;1814;-45
2022/03/05 18:48:16;;;;;;;;;;;;;;;21.47;23.94;95748.50;10446529;28;1912;-49
2022/03/05 18:53:17;;;;;;;;;;;;;;;21.45;23.91;95744.56;10445449;28;1976;-53
2022/03/05 18:58:19;;;;;;;;;;;;;;;21.44;24.04;95749.03;10428289;28;1969;-51
2022/03/05 19:03:22;;;;;;;;;;;;;;;21.42;24.11;95755.66;10444623;28;1902;-51
2022/03/05 19:08:22;;;;;;;;;;;;;;;21.41;23.99;95756.72;10436641;28;1834;-53
2022/03/05 19:13:22;;;;;;;;;;;;;;;21.43;24.28;95762.50;10420106;28;1840;-53
2022/03/05 19:18:23;;;;;;;;;;;;;;;21.38;24.08;95754.63;10436298;28;1949;-53
2022/03/05 19:23:23;;;;;;;;;;;;;;;21.35;24.14;95755.97;10443266;28;1815;-53
2022/03/05 19:28:24;;;;;;;;;;;;;;;21.35;24.04;95760.47;10444895;28;1826;-51
2022/03/05 19:33:24;;;;;;;;;;;;;;;21.31;24.10;95764.75;10438752;28;2217;-51
2022/03/05 19:38:24;;;;;;;;;;;;;;;21.35;24.43;95771.03;10439458;28;3554;-52
2022/03/05 19:43:25;;;;;;;;;;;;;;;21.21;24.16;95773.50;10422269;28;3446;-52
2022/03/05 19:48:25;;;;;;;;;;;;;;;21.20;24.54;95768.50;10444765;28;1759;-53
2022/03/05 19:53:26;;;;;;;;;;;;;;;21.14;24.68;95773.06;10420166;28;1758;-56
2022/03/05 19:58:27;;;;;;;;;;;;;;;21.18;24.39;95770.63;10458335;22;3426;-59
2022/03/05 20:03:28;;;;;;;;;;;;;;;21.16;24.55;95775.41;10429162;28;1815;-58
2022/03/05 20:08:29;;;;;;;;;;;;;;;21.15;24.35;95776.44;10423410;28;1882;-54
2022/03/05 20:13:29;;;;;;;;;;;;;;;21.14;24.95;95774.91;10422575;28;1835;-56
2022/03/05 20:18:30;;;;;;;;;;;;;;;21.20;24.52;95768.50;10439536;28;1969;-55
2022/03/05 20:23:31;;;;;;;;;;;;;;;21.18;24.61;95766.16;10440144;28;1830;-54
2022/03/05 20:28:31;;;;;;;;;;;;;;;21.10;24.89;95774.66;10433472;28;1836;-52
2022/03/05 20:33:32;;;;;;;;;;;;;;;21.13;24.75;95773.31;10443302;28;1890;-55
2022/03/05 20:38:33;;;;;;;;;;;;;;;21.05;24.73;95780.75;10441377;28;1979;-56
2022/03/05 20:43:33;;;;;;;;;;;;;;;21.02;24.73;95777.88;10443431;28;1859;-57
2022/03/05 20:48:33;;;;;;;;;;;;;;;21.02;24.81;95781.28;10428624;28;1851;-55
2022/03/05 20:53:34;;;;;;;;;;;;;;;20.95;24.73;95786.06;10436392;28;1917;-57
2022/03/05 20:58:36;;;;;;;;;;;;;;;21.01;24.69;95784.19;10435468;28;1964;-58
2022/03/05 21:03:36;;;;;;;;;;;;;;;21.03;24.73;95782.09;10439935;28;1710;-55
2022/03/05 21:08:37;;;;;;;;;;;;;;;21.04;24.92;95783.69;10430348;28;2164;-58
2022/03/05 21:13:37;;;;;;;;;;;;;;;21.03;24.71;95790.78;10433209;28;1887;-59
2022/03/05 21:18:38;;;;;;;;;;;;;;;21.03;24.95;95785.53;10435189;28;1915;-59
2022/03/05 21:23:38;;;;;;;;;;;;;;;20.94;25.11;95784.50;10420189;28;1647;-58
2022/03/05 21:28:38;;;;;;;;;;;;;;;20.92;24.92;95791.88;10410598;28;1790;-58
2022/03/05 21:33:40;;;;;;;;;;;;;;;20.98;24.88;95785.50;10416455;28;1881;-54
2022/03/05 21:38:40;;;;;;;;;;;;;;;21.03;24.74;95785.53;10446750;28;1920;-56
2022/03/05 21:43:40;;;;;;;;;;;;;;;21.08;24.91;95788.09;10449666;28;1988;-56
2022/03/05 21:48:41;;;;;;;;;;;;;;;21.15;24.85;95785.16;10447246;28;1827;-56
2022/03/05 21:53:41;;;;;;;;;;;;;;;21.22;24.63;95775.09;10445923;28;1856;-58
2022/03/05 21:58:42;;;;;;;;;;;;;;;21.35;24.37;95776.31;10438166;28;1977;-56
2022/03/05 22:03:43;;;;;;;;;;;;;;;21.42;24.16;95782.81;10444730;28;1932;-57
2022/03/05 22:08:43;;;;;;;;;;;;;;;21.42;24.55;95774.91;10446568;28;1657;-59
2022/03/05 22:13:43;;;;;;;;;;;;;;;21.57;24.15;95773.97;10445789;28;1702;-58
2022/03/05 22:18:45;;;;;;;;;;;;;;;21.74;23.97;95774.34;10424472;28;2084;-58
2022/03/05 22:23:46;;;;;;;;;;;;;;;21.86;23.89;95766.84;10444775;28;1753;-56
2022/03/05 22:28:47;;;;;;;;;;;;;;;21.96;23.72;95747.47;10430083;28;1616;-55
2022/03/05 22:33:49;;;;;;;;;;;;;;;22.02;23.67;95744.47;10422164;28;1737;-57
2022/03/05 22:38:49;;;;;;;;;;;;;;;22.11;23.75;95737.53;10440912;28;1981;-57
2022/03/05 22:43:49;;;;;;;;;;;;;;;22.22;23.50;95732.88;10444815;28;1673;-58
2022/03/05 22:48:50;;;;;;;;;;;;;;;22.26;23.94;95729.38;10442621;28;1797;-56
2022/03/05 22:53:51;;;;;;;;;;;;;;;22.34;23.76;95718.19;10445099;28;1764;-56
2022/03/05 22:58:52;;;;;;;;;;;;;;;22.39;23.90;95707.56;10444926;28;1956;-57
2022/03/05 23:09:30;;;;;;;;;;;;;;;22.49;23.72;95712.69;10439719;28;1666;-57
2022/03/05 23:14:31;;;;;;;;;;;;;;;22.52;23.95;95704.19;10441501;28;1678;-57
2022/03/05 23:19:31;;;;;;;;;;;;;;;22.57;23.92;95703.31;10442633;28;1975;-57
2022/03/05 23:24:31;;;;;;;;;;;;;;;22.64;24.00;95707.22;10442396;28;1710;-57
2022/03/05 23:29:32;;;;;;;;;;;;;;;22.68;24.01;95707.44;10445986;28;1705;-57
2022/03/05 23:34:32;;;;;;;;;;;;;;;22.71;23.93;95704.19;10427175;28;1580;-56
2022/03/05 23:39:33;;;;;;;;;;;;;;;22.76;23.97;95695.41;10446479;28;1915;-54
2022/03/05 23:44:34;;;;;;;;;;;;;;;22.79;23.91;95700.13;10443216;28;1612;-57
2022/03/05 23:49:35;;;;;;;;;;;;;;;22.58;27.09;95697.00;10441873;28;2086;-56
2022/03/05 23:54:36;;;;;;;;;;;;;;;22.45;27.03;95687.94;10414364;28;1745;-57
2022/03/05 23:59:36;;;;;;;;;;;;;;;22.43;25.42;95686.63;10442387;28;1918;-57
